• Join FlightAware (Why Join?)
  • Login
  • US Flag 
12:34AM EDT


 

Airport Tracker/Info


-or-


 

Live Flight TrackerFlight Track Log ✈ SWA2166 ✈ 11-Apr-2013 ✈ KMDW - KPVD

Flight Track Log - Related Links

Times and Time Zones

All times are in EDT time to prevent confusion due to time zone crossing. See the SWA2166 flight status page for this flight to view local times or setup timezone preferences in your user account.

Time Position Orientation Groundspeed Altitude Reporting Facility
EDT Latitude Longitude Course Direction KTS MPH feet Rate Location/Type
10:49AM 41.8000 -87.6833 86° East 184 212 2,300  Level Chicago TRACON
10:50AM 41.8167 -87.6000 75° East 235 270 3,000 480 Climbing Chicago TRACON
10:51AM 41.8144 -87.5753 97° East 209 241 3,000 240 Level Chicago Center
10:52AM 41.8044 -87.4922 99° East 220 253 3,400 1,680 Climbing Chicago Center
10:53AM 41.7961 -87.4014 97° East 245 282 6,500 3,600 Climbing Chicago Center
10:54AM 41.7842 -87.2961 99° East 282 325 10,900 4,140 Climbing Chicago Center
10:55AM 41.7515 -86.7900 86° East  Level FlightAware Approximate
10:55AM 41.7717 -87.1569 97° East 314 361 15,100  Level Chicago Center
10:56AM 41.7617 -87.0250 96° East 355 409 18,200 2,640 Climbing Chicago Center
10:57AM 41.7636 -86.8750 89° East 399 459 20,600 2,460 Climbing Chicago Center
10:58AM 41.7656 -86.7128 89° East 434 499 23,300 2,400 Climbing Chicago Center
10:59AM 41.7669 -86.5544 89° East 452 520 25,600 2,880 Climbing Chicago Center
11:00AM 41.7686 -86.3497 89° East 459 528 29,300 2,640 Climbing Chicago Center
11:01AM 41.7919 -86.1783 80° East 475 547 31,200 1,560 Climbing Chicago Center
11:02AM 41.8219 -85.9978 77° East 492 566 32,600 1,560 Climbing Chicago Center
11:03AM 41.8389 -85.8103 83° East 505 581 34,400 1,800 Climbing Chicago Center
11:04AM 41.8542 -85.6197 84° East 508 585 36,300 1,680 Climbing Chicago Center
11:05AM 41.8700 -85.4278 84° East 512 589 37,900 1,440 Climbing Chicago Center
11:06AM 41.8833 -85.3114 81° East 520 598 38,700 1,140 Climbing Cleveland Center
11:07AM 41.8950 -85.1222 85° East 515 593 39,800 1,080 Climbing Cleveland Center
11:08AM 41.9089 -84.9281 84° East 515 593 40,900 600 Climbing Cleveland Center
11:09AM 41.9244 -84.7308 84° East 515 593 41,000  Climbing Cleveland Center
11:10AM 41.9381 -84.5222 85° East 515 593 41,000  Level Cleveland Center
11:11AM 41.9508 -84.3275 85° East 515 593 41,000  Level Cleveland Center
11:12AM 41.9614 -84.1297 86° East 515 593 41,000  Level Cleveland Center
11:13AM 41.9733 -83.9378 85° East 515 593 41,000  Level Cleveland Center
11:14AM 41.9872 -83.7428 84° East 515 593 41,000  Level Cleveland Center
11:15AM 41.9986 -83.5533 85° East 515 593 41,000  Level Cleveland Center
11:16AM 42.0097 -83.3611 85° East 515 593 41,000  Level Cleveland Center
11:17AM 42.0206 -83.1658 86° East 515 593 41,000  Level Cleveland Center
11:18AM 42.0331 -82.9761 85° East 515 593 41,000  Level Cleveland Center
11:19AM 42.0431 -82.7808 86° East 515 593 41,000  Level Cleveland Center
11:20AM 42.0508 -82.5908 87° East 515 593 41,000  Level Cleveland Center
11:21AM 42.0622 -82.3983 85° East 515 593 41,000  Level Cleveland Center
11:22AM 42.0672 -82.2056 88° East 497 572 41,000  Level Cleveland Center
11:23AM 42.0825 -82.0100 84° East 515 593 41,000  Level Cleveland Center
11:24AM 42.0931 -81.8172 86° East 515 593 41,000  Level Cleveland Center
11:25AM 42.0992 -81.6242 87° East 515 593 41,000  Level Cleveland Center
11:26AM 42.1111 -81.4283 85° East 515 593 41,000  Level Cleveland Center
11:27AM 42.1206 -81.2494 86° East 522 601 41,000  Level Cleveland Center
11:28AM 42.1300 -81.0592 86° East 514 592 41,000  Level Cleveland Center
11:29AM 42.1347 -80.8658 88° East 514 592 41,100  Climbing Cleveland Center
11:30AM 42.1350 -80.6503 90° East 514 592 41,000 -60 Descending Cleveland Center
11:31AM 42.1328 -80.4572 91° East 514 592 41,000  Level Cleveland Center
11:32AM 42.1347 -80.2864 89° East 514 592 41,000  Level Cleveland Center
11:33AM 42.1361 -80.0931 89° East 514 592 41,000  Level Cleveland Center
11:34AM 42.1394 -79.9111 89° East 497 572 41,000  Level Cleveland Center
11:35AM 42.1381 -79.7181 90° East 497 572 41,000  Level Cleveland Center
11:36AM 42.1386 -79.5275 90° East 497 572 41,000  Level Cleveland Center
11:37AM 42.1408 -79.3342 89° East 497 572 41,000  Level Cleveland Center
11:38AM 42.1406 -79.1411 90° East 502 578 41,000  Level Cleveland Center
11:39AM 42.1381 -78.9481 91° East 512 589 41,000  Level Cleveland Center
11:40AM 42.1372 -78.7575 90° East 512 589 41,000  Level Cleveland Center
11:41AM 42.1361 -78.5644 90° East 512 589 41,000  Level Cleveland Center
11:42AM 42.1328 -78.3739 91° East 512 589 41,000  Level Cleveland Center
11:44AM 42.1258 -77.9711 91° East 519 597 41,000  Level New York Center
11:45AM 42.1247 -77.7808 90° East 519 597 41,000  Level New York Center
11:47AM 42.1208 -77.4011 91° East 524 603 41,000  Level Boston Center
11:48AM 42.1144 -77.2100 93° East 519 597 41,000  Level Boston Center
11:49AM 42.1117 -77.0222 91° East 514 592 41,000  Level Boston Center
11:50AM 42.1069 -76.8314 92° East 514 592 41,000  Level Boston Center
11:51AM 42.1036 -76.6408 91° East 509 586 41,000  Level Boston Center
11:52AM 42.1017 -76.4700 91° East 509 586 41,000  Level Boston Center
11:53AM 42.0958 -76.2764 92° East 509 586 41,000  Level Boston Center
11:54AM 42.0917 -76.0858 92° East 514 592 41,000  Level Boston Center
11:55AM 42.0842 -75.8589 92° East 514 592 41,000  Level Boston Center
11:56AM 42.0794 -75.6656 92° East 514 592 41,000 -120 Level Boston Center
11:57AM 42.0825 -75.4808 89° East 509 586 40,800 -660 Descending Boston Center
11:58AM 42.0997 -75.2942 83° East 502 578 39,800 -1,560 Descending Boston Center
11:59AM 42.1150 -75.0989 84° East 495 570 37,800 -2,220 Descending Boston Center
12:00PM 42.1317 -74.9150 83° East 490 564 35,400 -2,400 Descending Boston Center
12:01PM 42.1481 -74.7281 83° East 490 564 33,000 -2,220 Descending Boston Center
12:02PM 42.1597 -74.5547 85° East 479 551 31,000 -2,040 Descending Boston Center
12:03PM 42.1753 -74.3900 83° East 465 535 29,100 -1,140 Descending Boston Center
12:04PM 42.1883 -74.2250 84° East 446 513 28,800 -660 Descending Boston Center
12:05PM 42.2033 -74.0600 83° East 441 507 27,800 -960 Descending Boston Center
12:07PM 42.2239 -73.7661 85° East 441 507 26,000 -1,020 Descending Boston Center
12:08PM 42.2406 -73.5589 84° East 453 521 24,800 -1,140 Descending Boston Center
12:09PM 42.2525 -73.3967 84° East 445 512 23,800 -1,020 Descending Boston Center
12:10PM 42.2183 -73.2558 108° East 410 472 22,800 -1,500 Descending Boston Center
12:11PM 42.1525 -73.1261 124° Southeast 396 456 20,800 -2,340 Descending Boston Center
12:12PM 42.0925 -73.0081 124° Southeast 411 473 18,200 -1,440 Descending Boston Center
12:13PM 42.0181 -72.8703 126° Southeast 419 482 18,000 -120 Descending Boston Center
12:14PM 41.9539 -72.7472 125° Southeast 419 482 18,000 -180 Level Boston Center
12:15PM 41.9083 -72.6519 123° Southeast 410 472 17,700 -480 Descending Boston Center
12:15PM 41.8833 -72.6047 125° Southeast 405 466 17,500 -960 Descending Boston Center
12:16PM 41.8272 -72.4986 125° Southeast 403 464 16,500 -1,440 Descending Boston Center
12:17PM 41.7669 -72.3900 127° Southeast 403 464 14,800 -1,980 Descending Boston Center
12:18PM 41.7019 -72.2594 124° Southeast 397 457 12,600 -1,920 Descending Boston Center
12:19PM 41.6414 -72.1483 126° Southeast 382 440 11,000 -1,260 Descending Boston Center
12:19PM 41.6247 -72.1208 129° Southeast 355 409 11,000 -1,200 Level Boston Center
12:20PM 41.5847 -72.0489 127° Southeast 357 411 9,800 -1,800 Descending Boston Center
12:20PM 41.5681 -72.0267 135° Southeast 329 379 9,200 -2,160 Descending Boston Center
12:21PM 41.5258 -71.9189 118° Southeast 325 374 7,100 -1,920 Descending Boston Center
12:22PM 41.4900 -71.8111 114° Southeast 321 369 5,400 -1,560 Descending Boston Center
12:23PM 41.4811 -71.7114 97° East 292 336 4,100 -1,080 Descending Boston Center
12:24PM 41.5117 -71.6167 67° East 242 278 3,300 -720 Descending Boston Center
12:25PM 41.5592 -71.5689 37° Northeast 206 237 2,700 -660 Descending Boston Center
12:26PM 41.5944 -71.5381 33° Northeast 158 182 2,000 -360 Descending Boston Center
12:27PM 41.6233 -71.5125 33° Northeast 118 136 2,000 -240 Level Boston Center
12:28PM 41.6483 -71.4900 34° Northeast 116 133 1,600 -600 Descending Boston Center
12:29PM 41.6772 -71.4672 30° Northeast 121 139 900 -660 Descending Boston Center
12:30PM 41.7061 -71.4447 30° Northeast 116 133 300 -600 Descending Boston Center